Time;durP1;ratioP1;P1;durP2;ratioP2;P2;SDS_P1;SDS_P2;PMS_P1;PMS_P2;Temp;Humidity;BMP_temperature;BMP_pressure;BME280_temperature;BME280_humidity;BME280_pressure;Samples;Min_cycle;Max_cycle;Signal;HPM_P1;HPM_P2
2021/04/19 00:02:17;;;;;;;21.00;14.05;;;6.20;99.90;;;;;;5025468;28;20537;-71
2021/04/19 00:04:43;;;;;;;20.80;12.88;;;6.20;99.90;;;;;;5020648;28;20042;-71
2021/04/19 00:07:09;;;;;;;21.05;13.77;;;6.10;99.90;;;;;;5023114;28;20420;-71
2021/04/19 00:09:36;;;;;;;19.70;13.77;;;6.10;99.90;;;;;;5026609;28;20086;-71
2021/04/19 00:12:03;;;;;;;18.58;12.57;;;6.10;99.90;;;;;;5025812;28;20053;-71
2021/04/19 00:14:29;;;;;;;17.02;12.00;;;6.10;99.90;;;;;;5023202;28;20045;-71
2021/04/19 00:16:55;;;;;;;20.00;13.40;;;6.60;99.90;;;;;;5026735;28;20479;-71
2021/04/19 00:19:21;;;;;;;20.20;13.38;;;6.10;99.90;;;;;;5030698;28;20059;-71
2021/04/19 00:21:47;;;;;;;18.63;11.80;;;6.10;99.90;;;;;;5026398;28;20068;-70
2021/04/19 00:24:13;;;;;;;22.35;14.25;;;6.00;99.90;;;;;;5025768;28;20399;-71
2021/04/19 00:26:39;;;;;;;23.00;13.38;;;6.10;99.90;;;;;;5021855;28;20053;-71
2021/04/19 00:29:05;;;;;;;23.58;15.07;;;6.00;99.90;;;;;;5023424;28;20159;-70
2021/04/19 00:31:31;;;;;;;19.98;13.63;;;6.00;99.90;;;;;;5021817;28;20534;-71
2021/04/19 00:33:57;;;;;;;20.40;14.32;;;6.00;99.90;;;;;;5024117;28;20080;-71
2021/04/19 00:36:23;;;;;;;20.55;14.70;;;5.90;99.90;;;;;;5022843;28;20041;-71
2021/04/19 00:38:49;;;;;;;24.63;14.95;;;5.90;99.90;;;;;;5023725;28;20128;-70
2021/04/19 00:41:15;;;;;;;27.40;16.63;;;5.90;99.90;;;;;;5025119;28;20124;-70
2021/04/19 00:43:41;;;;;;;18.55;14.30;;;5.90;99.90;;;;;;5024240;28;20140;-71
2021/04/19 00:46:07;;;;;;;20.42;15.35;;;5.60;99.90;;;;;;5025043;28;20124;-71
2021/04/19 00:48:35;;;;;;;22.83;14.90;;;5.80;99.90;;;;;;5021962;28;20050;-70
2021/04/19 00:51:02;;;;;;;23.42;15.05;;;5.80;99.90;;;;;;5023505;28;20091;-71
2021/04/19 00:53:29;;;;;;;19.25;14.63;;;5.80;99.90;;;;;;5023018;28;20045;-71
2021/04/19 00:55:55;;;;;;;23.77;14.60;;;5.90;99.90;;;;;;5040680;28;20072;-70
2021/04/19 00:58:28;;;;;;;19.40;15.43;;;5.90;99.90;;;;;;5011337;28;20053;-71
2021/04/19 01:00:55;;;;;;;21.30;14.95;;;5.90;99.90;;;;;;5028590;28;20146;-71
2021/04/19 01:03:22;;;;;;;18.33;13.70;;;5.90;99.90;;;;;;5021444;28;20121;-71
2021/04/19 01:05:50;;;;;;;20.10;14.48;;;5.90;99.90;;;;;;5021465;28;20117;-71
2021/04/19 01:08:17;;;;;;;25.83;15.75;;;5.90;99.90;;;;;;5019909;28;20136;-70
2021/04/19 01:10:43;;;;;;;24.13;15.57;;;5.90;99.90;;;;;;5020645;28;20531;-71
2021/04/19 01:13:09;;;;;;;27.02;15.90;;;5.90;99.90;;;;;;5022582;28;20054;-71
2021/04/19 01:15:36;;;;;;;23.48;16.75;;;5.90;99.90;;;;;;5022889;28;20032;-71
2021/04/19 01:18:03;;;;;;;21.13;15.02;;;6.00;99.90;;;;;;5023782;28;20057;-70
2021/04/19 01:20:30;;;;;;;24.60;16.48;;;5.90;99.90;;;;;;5025353;28;20056;-71
2021/04/19 01:22:57;;;;;;;25.55;16.85;;;6.00;99.90;;;;;;5023108;28;20053;-70
2021/04/19 01:25:27;;;;;;;24.42;16.38;;;6.00;99.90;;;;;;5027684;28;20537;-71
2021/04/19 01:27:54;;;;;;;25.95;17.95;;;6.00;99.90;;;;;;5023536;28;20048;-71
2021/04/19 01:30:23;;;;;;;23.08;17.10;;;6.10;99.90;;;;;;5025314;28;20041;-70
2021/04/19 01:32:49;;;;;;;28.85;17.40;;;6.10;99.90;;;;;;5023763;28;20100;-71
2021/04/19 01:35:15;;;;;;;23.70;16.55;;;6.10;99.90;;;;;;5038255;28;20507;-70
2021/04/19 01:37:42;;;;;;;23.85;18.08;;;6.10;99.90;;;;;;5024612;28;20068;-71
2021/04/19 01:40:12;;;;;;;25.92;18.13;;;6.20;99.90;;;;;;5025905;28;20119;-71
2021/04/19 01:42:38;;;;;;;26.63;17.98;;;6.20;99.90;;;;;;5022643;28;20549;-70
2021/04/19 01:45:06;;;;;;;24.50;17.23;;;6.20;99.90;;;;;;5021290;28;20049;-71
2021/04/19 01:47:32;;;;;;;26.52;17.83;;;7.00;99.90;;;;;;5019831;28;20048;-71
2021/04/19 01:49:58;;;;;;;20.73;16.98;;;6.30;99.90;;;;;;5024099;28;20487;-70
2021/04/19 01:52:24;;;;;;;25.20;17.20;;;6.30;99.90;;;;;;5024166;28;20487;-71
2021/04/19 01:54:50;;;;;;;22.85;17.17;;;6.30;99.90;;;;;;5021868;28;20044;-71
2021/04/19 01:57:31;;;;;;;23.58;17.05;;;6.30;99.90;;;;;;5021152;28;20052;-71
2021/04/19 01:59:57;;;;;;;19.70;16.42;;;6.40;99.90;;;;;;5026275;28;20040;-71
2021/04/19 02:02:48;;;;;;;24.73;17.98;;;6.30;99.90;;;;;;5024431;28;20045;-71
2021/04/19 02:05:17;;;;;;;29.58;17.52;;;6.50;99.90;;;;;;5027322;28;20045;-71
2021/04/19 02:07:54;;;;;;;25.80;17.27;;;6.30;99.90;;;;;;5025519;28;20072;-71
2021/04/19 02:10:57;;;;;;;27.50;17.67;;;6.30;99.90;;;;;;5020516;28;20049;-71
2021/04/19 02:13:44;;;;;;;28.33;16.83;;;6.30;99.90;;;;;;5020464;28;21058;-70
2021/04/19 02:16:17;;;;;;;23.38;16.95;;;6.30;99.90;;;;;;5022381;28;20049;-71
2021/04/19 02:18:46;;;;;;;24.80;16.67;;;6.40;99.90;;;;;;5021712;28;20109;-70
2021/04/19 02:21:30;;;;;;;28.08;18.10;;;6.40;99.90;;;;;;5025840;28;20049;-71
2021/04/19 02:24:05;;;;;;;23.75;17.67;;;6.40;99.90;;;;;;5025076;28;20121;-70
2021/04/19 02:26:34;;;;;;;27.00;18.47;;;6.40;99.90;;;;;;5023828;28;20042;-71
2021/04/19 02:29:04;;;;;;;23.30;16.52;;;6.50;99.90;;;;;;5023270;28;20371;-71
2021/04/19 02:31:35;;;;;;;33.70;18.88;;;6.50;99.90;;;;;;5025721;28;20106;-71
2021/04/19 02:34:07;;;;;;;24.98;18.08;;;6.50;99.90;;;;;;5026156;28;20037;-71
2021/04/19 02:36:33;;;;;;;25.80;17.98;;;6.50;99.90;;;;;;5026846;28;20068;-70
2021/04/19 02:39:00;;;;;;;25.90;16.75;;;6.60;99.90;;;;;;5025588;28;20464;-71
2021/04/19 02:41:28;;;;;;;26.05;17.13;;;6.60;99.90;;;;;;5029753;28;20127;-71
2021/04/19 02:43:54;;;;;;;25.80;18.08;;;6.70;99.90;;;;;;5023250;28;20033;-71
2021/04/19 02:46:22;;;;;;;25.25;17.10;;;6.70;99.90;;;;;;5031627;28;20042;-71
2021/04/19 02:48:48;;;;;;;23.40;17.48;;;6.70;99.90;;;;;;5027477;28;20060;-70
2021/04/19 02:51:14;;;;;;;24.70;17.77;;;6.80;99.90;;;;;;5026403;28;20061;-71
2021/04/19 02:53:43;;;;;;;23.98;18.00;;;6.80;99.90;;;;;;5025156;28;20183;-70
2021/04/19 02:56:09;;;;;;;24.15;16.98;;;6.80;99.90;;;;;;5025977;28;20484;-70
2021/04/19 02:58:43;;;;;;;26.45;17.58;;;6.80;99.90;;;;;;5030486;28;20045;-71
2021/04/19 03:01:15;;;;;;;21.15;16.33;;;6.80;99.90;;;;;;5031368;28;20114;-70
2021/04/19 03:03:46;;;;;;;22.30;17.73;;;6.90;99.90;;;;;;5046588;28;20055;-71
2021/04/19 03:06:14;;;;;;;28.40;16.27;;;6.90;99.90;;;;;;5030469;28;20065;-70
2021/04/19 03:08:45;;;;;;;23.55;17.13;;;7.00;99.90;;;;;;5026675;28;20060;-71
2021/04/19 03:11:33;;;;;;;24.58;18.02;;;7.10;99.90;;;;;;5030251;28;20037;-71
2021/04/19 03:14:04;;;;;;;26.05;17.38;;;7.00;99.90;;;;;;5031531;28;20120;-71
2021/04/19 03:16:31;;;;;;;20.50;17.27;;;7.00;99.90;;;;;;5031514;28;20372;-71
2021/04/19 03:18:59;;;;;;;22.70;18.00;;;7.10;99.90;;;;;;5031628;28;20491;-71
2021/04/19 03:21:30;;;;;;;23.42;17.77;;;7.10;99.90;;;;;;5031382;28;20562;-71
2021/04/19 03:24:01;;;;;;;25.05;18.15;;;7.10;99.90;;;;;;5030741;28;20101;-71
2021/04/19 03:26:29;;;;;;;22.50;17.58;;;7.10;99.90;;;;;;5031367;28;20040;-71
2021/04/19 03:28:57;;;;;;;27.20;19.75;;;7.10;99.90;;;;;;5031839;28;20049;-71
2021/04/19 03:31:27;;;;;;;26.98;17.95;;;7.10;99.90;;;;;;5031268;28;20041;-71
2021/04/19 03:33:57;;;;;;;26.23;18.10;;;7.10;99.90;;;;;;5031077;28;20125;-70
2021/04/19 03:36:25;;;;;;;22.67;17.10;;;7.10;99.90;;;;;;5031376;28;20167;-70
2021/04/19 03:38:51;;;;;;;24.73;16.73;;;7.10;99.90;;;;;;5031101;28;20033;-71
2021/04/19 03:41:18;;;;;;;22.08;17.08;;;7.10;99.90;;;;;;5025767;28;20419;-70
2021/04/19 03:43:53;;;;;;;23.20;17.02;;;7.10;99.90;;;;;;5030603;28;20033;-71
2021/04/19 03:46:22;;;;;;;24.27;18.17;;;7.10;99.90;;;;;;5029585;28;20160;-71
2021/04/19 03:48:55;;;;;;;23.70;18.08;;;7.10;99.90;;;;;;5028620;28;20046;-71
2021/04/19 03:51:22;;;;;;;28.42;19.02;;;7.10;99.90;;;;;;5031244;28;20041;-71
2021/04/19 03:53:49;;;;;;;26.48;18.52;;;6.90;99.90;;;;;;5030675;28;20488;-71
2021/04/19 03:56:17;;;;;;;23.13;17.90;;;6.90;99.90;;;;;;5029776;28;20052;-70
2021/04/19 03:58:45;;;;;;;23.58;16.98;;;6.80;99.90;;;;;;5029091;28;20146;-71
2021/04/19 04:01:12;;;;;;;22.38;17.83;;;6.70;99.90;;;;;;5027307;28;20076;-71
2021/04/19 04:03:38;;;;;;;21.30;17.27;;;6.60;99.90;;;;;;5030069;28;20054;-70
2021/04/19 04:06:05;;;;;;;21.77;16.70;;;6.60;99.90;;;;;;5026215;28;20045;-71
2021/04/19 04:08:31;;;;;;;27.65;16.80;;;6.60;99.90;;;;;;5030881;28;20041;-71
2021/04/19 04:10:58;;;;;;;26.35;17.95;;;6.60;99.90;;;;;;5031512;28;20038;-70
2021/04/19 04:13:26;;;;;;;20.88;16.45;;;6.50;99.90;;;;;;5025388;28;20059;-70
2021/04/19 04:15:58;;;;;;;23.35;17.85;;;6.60;99.90;;;;;;5030967;28;20053;-71
2021/04/19 04:18:24;;;;;;;23.40;17.02;;;6.60;99.90;;;;;;5029971;28;20041;-70
2021/04/19 04:20:50;;;;;;;28.38;16.67;;;6.60;99.90;;;;;;5027169;28;20057;-71
2021/04/19 04:23:16;;;;;;;18.02;14.85;;;6.60;99.90;;;;;;5029643;28;20041;-71
2021/04/19 04:25:44;;;;;;;21.48;16.27;;;6.60;99.90;;;;;;5034492;28;20052;-70
2021/04/19 04:28:12;;;;;;;22.65;17.63;;;6.70;99.90;;;;;;5034425;28;20050;-70
2021/04/19 04:30:39;;;;;;;23.45;17.23;;;6.70;99.90;;;;;;5034868;28;20076;-71
2021/04/19 04:33:09;;;;;;;26.20;18.25;;;6.60;99.90;;;;;;5015951;28;20083;-70
2021/04/19 04:35:37;;;;;;;22.85;18.60;;;6.60;99.90;;;;;;5035026;28;20065;-71
2021/04/19 04:38:04;;;;;;;30.90;19.38;;;6.60;99.90;;;;;;5030215;28;20064;-71
2021/04/19 04:40:32;;;;;;;28.05;19.42;;;6.60;99.90;;;;;;5036458;28;20059;-71
2021/04/19 04:43:21;;;;;;;26.17;18.27;;;6.60;99.90;;;;;;5027552;28;20037;-71
2021/04/19 04:45:49;;;;;;;28.38;17.35;;;6.60;99.90;;;;;;5032208;28;20053;-71
2021/04/19 04:48:23;;;;;;;21.65;15.98;;;6.70;99.90;;;;;;5034067;28;20060;-71
2021/04/19 04:51:03;;;;;;;24.92;17.42;;;6.70;99.90;;;;;;5035395;28;20102;-70
2021/04/19 04:53:35;;;;;;;23.10;18.10;;;7.00;99.90;;;;;;5025592;28;20591;-72
2021/04/19 04:56:02;;;;;;;23.15;16.77;;;6.70;99.90;;;;;;5022043;28;20044;-71
2021/04/19 04:58:31;;;;;;;28.73;18.20;;;6.70;99.90;;;;;;5025412;28;20041;-71
2021/04/19 05:00:58;;;;;;;21.80;16.80;;;6.80;99.90;;;;;;5023941;28;20108;-71
2021/04/19 05:03:25;;;;;;;23.77;17.05;;;7.00;99.90;;;;;;5020849;28;20037;-71
2021/04/19 05:05:53;;;;;;;19.48;16.27;;;7.30;99.90;;;;;;5025215;28;20121;-71
2021/04/19 05:08:19;;;;;;;20.27;14.98;;;7.40;99.90;;;;;;5021290;28;20045;-71
2021/04/19 05:10:45;;;;;;;20.23;15.10;;;7.60;99.90;;;;;;5023155;28;20395;-71
2021/04/19 05:13:13;;;;;;;27.25;16.35;;;7.80;99.90;;;;;;5025100;28;20045;-71
2021/04/19 05:15:41;;;;;;;18.13;14.30;;;8.30;99.90;;;;;;5021757;28;20411;-71
2021/04/19 05:18:13;;;;;;;18.60;14.15;;;8.70;99.90;;;;;;5022366;28;20037;-72
2021/04/19 05:20:39;;;;;;;21.77;15.07;;;9.30;99.90;;;;;;5025047;28;20048;-72
2021/04/19 05:23:05;;;;;;;18.80;13.63;;;9.80;99.10;;;;;;5024276;28;20045;-72
2021/04/19 05:25:31;;;;;;;17.63;13.95;;;10.20;98.00;;;;;;5022174;28;20483;-72
2021/04/19 05:27:59;;;;;;;23.13;13.20;;;10.60;97.40;;;;;;5026918;28;20046;-73
2021/04/19 05:30:27;;;;;;;13.48;12.07;;;10.90;96.30;;;;;;5019697;28;20052;-73
2021/04/19 05:32:54;;;;;;;13.95;12.32;;;11.60;96.30;;;;;;5025997;28;20041;-73
2021/04/19 05:35:20;;;;;;;15.13;11.82;;;12.00;94.90;;;;;;5023687;28;20034;-73
2021/04/19 05:37:48;;;;;;;17.20;12.38;;;12.10;93.80;;;;;;5026445;28;20401;-73
2021/04/19 05:40:15;;;;;;;14.82;11.23;;;12.50;93.70;;;;;;5026907;28;20036;-73
2021/04/19 05:42:41;;;;;;;14.38;10.52;;;12.70;93.30;;;;;;5027616;28;20491;-73
2021/04/19 05:45:13;;;;;;;16.10;11.43;;;13.30;93.00;;;;;;5028113;28;20056;-73
2021/04/19 05:47:39;;;;;;;12.10;9.43;;;13.40;90.60;;;;;;5026454;28;20045;-73
2021/04/19 05:50:06;;;;;;;10.85;9.75;;;14.10;90.90;;;;;;5023061;28;20147;-73
2021/04/19 05:52:35;;;;;;;13.50;10.10;;;14.30;88.20;;;;;;5025673;28;20048;-73
2021/04/19 05:55:01;;;;;;;14.63;10.65;;;14.40;87.10;;;;;;5025416;28;20038;-73
2021/04/19 05:57:53;;;;;;;12.82;9.98;;;14.80;87.20;;;;;;5025422;28;20049;-73
2021/04/19 06:00:34;;;;;;;12.82;9.68;;;15.10;84.90;;;;;;5024335;28;20060;-73
2021/04/19 06:03:21;;;;;;;11.68;8.73;;;15.00;85.40;;;;;;5026947;28;20045;-73
2021/04/19 06:05:56;;;;;;;13.90;9.50;;;15.20;85.30;;;;;;5024900;28;20091;-73
2021/04/19 06:08:30;;;;;;;12.05;10.25;;;15.10;81.80;;;;;;5024607;28;20102;-74
2021/04/19 06:11:05;;;;;;;12.05;9.50;;;15.30;82.30;;;;;;5025669;28;20041;-73
2021/04/19 06:13:33;;;;;;;11.77;10.57;;;15.40;81.80;;;;;;5026882;28;20041;-73
2021/04/19 06:16:01;;;;;;;16.73;10.30;;;14.90;82.50;;;;;;5025226;28;20041;-74
2021/04/19 06:18:29;;;;;;;13.23;9.95;;;14.40;83.40;;;;;;5026100;28;20052;-74
2021/04/19 06:20:56;;;;;;;15.32;10.43;;;13.80;87.30;;;;;;5024514;28;20046;-71
2021/04/19 06:23:23;;;;;;;15.68;10.98;;;13.60;88.80;;;;;;5026885;28;20045;-71
2021/04/19 06:25:49;;;;;;;12.00;9.52;;;14.10;88.80;;;;;;5024737;28;20046;-70
2021/04/19 06:28:15;;;;;;;14.52;8.80;;;14.90;85.30;;;;;;5026718;28;20037;-71
2021/04/19 06:30:43;;;;;;;10.45;8.60;;;15.60;82.20;;;;;;5022026;28;20040;-71
2021/04/19 06:33:17;;;;;;;12.32;8.88;;;15.80;79.50;;;;;;5026714;28;20596;-71
2021/04/19 06:35:43;;;;;;;11.60;8.60;;;16.10;76.80;;;;;;5033499;28;20040;-71
2021/04/19 06:38:09;;;;;;;9.52;7.50;;;16.20;77.10;;;;;;5031439;28;20128;-71
2021/04/19 06:40:37;;;;;;;11.60;8.18;;;16.20;76.70;;;;;;5031685;28;20555;-71
2021/04/19 06:43:03;;;;;;;9.23;7.03;;;16.70;74.00;;;;;;5031658;28;20568;-71
2021/04/19 06:45:31;;;;;;;11.00;8.20;;;16.60;73.50;;;;;;5030800;28;20083;-71
2021/04/19 06:48:00;;;;;;;9.35;8.43;;;15.90;76.30;;;;;;5032413;28;20083;-71
2021/04/19 06:50:26;;;;;;;9.35;8.38;;;15.50;77.30;;;;;;5025555;28;20480;-71
2021/04/19 06:52:51;;;;;;;11.60;8.32;;;15.30;80.60;;;;;;5031254;28;20033;-71
2021/04/19 06:55:20;;;;;;;15.18;9.05;;;15.10;82.90;;;;;;5029592;28;20052;-71
2021/04/19 06:57:51;;;;;;;10.10;8.85;;;14.80;83.10;;;;;;5031132;28;20041;-71
2021/04/19 07:00:17;;;;;;;11.15;8.00;;;14.60;85.00;;;;;;5029565;28;20071;-71
2021/04/19 07:02:54;;;;;;;10.68;8.27;;;14.50;86.10;;;;;;5031190;28;20037;-71
2021/04/19 07:05:25;;;;;;;13.98;9.48;;;14.10;88.00;;;;;;5027288;28;20049;-70
2021/04/19 07:08:17;;;;;;;11.07;8.43;;;14.00;88.40;;;;;;5030031;28;20379;-71
2021/04/19 07:10:44;;;;;;;9.77;8.80;;;14.20;88.90;;;;;;5028789;28;20778;-71
2021/04/19 07:13:13;;;;;;;10.82;8.18;;;14.20;87.90;;;;;;5031276;28;20037;-71
2021/04/19 07:15:46;;;;;;;16.30;8.70;;;13.70;89.60;;;;;;5029641;28;20774;-70
2021/04/19 07:18:15;;;;;;;11.68;9.18;;;13.40;90.50;;;;;;5031524;28;20049;-70
2021/04/19 07:20:44;;;;;;;10.48;9.18;;;13.50;91.00;;;;;;5027126;28;20487;-71
2021/04/19 07:23:09;;;;;;;14.15;9.88;;;13.60;91.60;;;;;;5031041;28;20045;-70
2021/04/19 07:25:35;;;;;;;15.85;10.70;;;13.50;91.30;;;;;;5028932;28;20044;-71
2021/04/19 07:28:04;;;;;;;14.15;11.05;;;13.10;91.20;;;;;;5027277;28;20037;-71
2021/04/19 07:30:31;;;;;;;16.48;10.68;;;12.80;91.90;;;;;;5028933;28;20459;-70
2021/04/19 07:32:57;;;;;;;15.15;11.05;;;12.90;92.60;;;;;;5028019;28;20128;-70
2021/04/19 07:35:29;;;;;;;15.15;11.35;;;12.80;92.60;;;;;;5029843;28;20506;-70
2021/04/19 07:38:07;;;;;;;19.13;10.43;;;12.80;92.80;;;;;;5030865;28;20041;-70
2021/04/19 07:40:35;;;;;;;11.75;9.60;;;12.50;92.70;;;;;;5029110;28;20501;-70
2021/04/19 07:43:28;;;;;;;14.68;10.10;;;12.40;93.40;;;;;;5026741;28;20068;-71
2021/04/19 07:46:07;;;;;;;11.23;9.43;;;12.20;93.60;;;;;;5025683;28;20055;-70
2021/04/19 07:48:47;;;;;;;14.30;10.07;;;12.30;94.10;;;;;;5029053;28;20075;-70
2021/04/19 07:51:38;;;;;;;14.95;10.40;;;12.20;94.00;;;;;;5027480;28;20518;-70
2021/04/19 07:54:21;;;;;;;15.38;9.50;;;12.20;94.30;;;;;;5029796;28;20425;-70
2021/04/19 07:56:53;;;;;;;15.73;9.15;;;12.20;94.10;;;;;;5027263;28;20723;-70
2021/04/19 07:59:32;;;;;;;12.18;8.70;;;12.80;94.20;;;;;;5027684;28;20522;-71
2021/04/19 08:02:09;;;;;;;14.20;8.85;;;13.30;93.10;;;;;;5026995;28;20112;-70
2021/04/19 08:04:48;;;;;;;12.02;9.35;;;13.40;93.40;;;;;;5027580;28;20033;-70
2021/04/19 08:07:22;;;;;;;12.35;9.52;;;13.40;92.30;;;;;;5028670;28;20156;-70
2021/04/19 08:10:00;;;;;;;10.15;9.15;;;13.50;92.70;;;;;;5028099;28;20061;-70
2021/04/19 08:12:41;;;;;;;12.32;9.75;;;13.50;92.10;;;;;;5027992;28;20037;-70
2021/04/19 08:15:10;;;;;;;13.43;8.00;;;13.80;92.50;;;;;;5027634;28;20550;-70
2021/04/19 08:17:36;;;;;;;12.50;9.77;;;14.00;91.60;;;;;;5026749;28;20091;-70
2021/04/19 08:20:08;;;;;;;12.15;9.75;;;14.00;91.30;;;;;;5027107;28;20041;-70
2021/04/19 08:22:34;;;;;;;13.30;9.90;;;13.80;91.40;;;;;;5021113;28;20037;-70
2021/04/19 08:25:13;;;;;;;15.48;10.32;;;13.80;91.60;;;;;;5027748;28;20045;-70
2021/04/19 08:27:43;;;;;;;13.27;8.70;;;13.60;91.90;;;;;;5024235;28;20087;-70
2021/04/19 08:30:11;;;;;;;10.98;9.25;;;13.70;92.10;;;;;;5028572;28;20049;-70
2021/04/19 08:32:38;;;;;;;12.05;8.77;;;13.60;91.90;;;;;;5024982;28;20495;-70
2021/04/19 08:35:08;;;;;;;16.77;8.88;;;13.70;91.70;;;;;;5030372;28;20123;-70
2021/04/19 08:37:34;;;;;;;13.52;9.05;;;13.80;92.10;;;;;;5027549;28;20045;-70
2021/04/19 08:40:02;;;;;;;11.73;8.88;;;13.70;92.50;;;;;;5027749;28;20434;-70
2021/04/19 08:42:28;;;;;;;11.70;9.07;;;13.70;92.20;;;;;;5025722;28;20037;-69
2021/04/19 08:44:57;;;;;;;12.73;10.00;;;13.70;92.20;;;;;;5028827;28;20079;-70
2021/04/19 08:47:27;;;;;;;12.02;8.85;;;13.80;92.60;;;;;;5027952;28;20037;-70
2021/04/19 08:50:04;;;;;;;13.15;9.70;;;13.70;92.30;;;;;;5028532;28;21805;-70
2021/04/19 08:52:29;;;;;;;9.70;8.43;;;13.70;92.50;;;;;;5027629;28;20052;-70
2021/04/19 08:54:56;;;;;;;15.38;9.57;;;13.60;92.50;;;;;;5028008;28;20029;-70
2021/04/19 08:57:22;;;;;;;12.18;9.82;;;13.50;92.80;;;;;;5024089;28;20444;-70
2021/04/19 08:59:53;;;;;;;13.45;9.60;;;13.30;93.30;;;;;;5026373;28;20564;-69
2021/04/19 09:02:21;;;;;;;14.45;9.32;;;13.40;93.50;;;;;;5026093;28;20164;-70
2021/04/19 09:05:09;;;;;;;13.38;9.68;;;13.50;93.20;;;;;;5026596;28;20559;-70
2021/04/19 09:07:38;;;;;;;15.15;9.63;;;13.40;92.90;;;;;;5028912;28;20090;-70
2021/04/19 09:10:06;;;;;;;12.23;9.60;;;13.40;93.20;;;;;;5028550;28;20108;-69
2021/04/19 09:12:32;;;;;;;13.27;9.82;;;13.50;93.50;;;;;;5029151;28;20249;-70
2021/04/19 09:15:29;;;;;;;13.93;10.05;;;13.70;93.60;;;;;;5029032;28;20155;-69
2021/04/19 09:18:08;;;;;;;14.23;10.20;;;13.60;93.30;;;;;;5027877;28;20510;-69
2021/04/19 09:20:55;;;;;;;12.32;10.25;;;13.50;93.30;;;;;;5024516;28;20053;-70
2021/04/19 09:23:31;;;;;;;12.45;10.60;;;13.30;93.10;;;;;;5022860;28;20049;-70
2021/04/19 09:25:58;;;;;;;14.40;11.02;;;13.00;93.50;;;;;;5023166;28;20144;-70
2021/04/19 09:28:39;;;;;;;12.02;10.43;;;13.20;94.20;;;;;;5025859;28;20049;-70
2021/04/19 09:31:05;;;;;;;12.63;10.57;;;13.10;93.10;;;;;;5024275;28;20569;-70
2021/04/19 09:33:31;;;;;;;14.23;11.48;;;13.10;93.90;;;;;;5027766;28;20541;-70
2021/04/19 09:35:56;;;;;;;17.70;11.98;;;13.30;95.80;;;;;;5027286;28;20080;-70
2021/04/19 09:38:49;;;;;;;19.35;12.35;;;13.10;93.20;;;;;;5028395;28;20087;-70
2021/04/19 09:41:18;;;;;;;13.18;11.85;;;13.40;94.00;;;;;;5027317;28;20404;-70
2021/04/19 09:43:54;;;;;;;13.23;11.63;;;13.60;93.80;;;;;;5017481;28;20041;-69
2021/04/19 09:46:19;;;;;;;14.63;11.20;;;13.60;92.80;;;;;;5027812;28;20121;-70
2021/04/19 09:48:46;;;;;;;17.77;12.98;;;13.30;92.70;;;;;;5028777;28;20490;-70
2021/04/19 09:51:20;;;;;;;16.67;11.95;;;13.70;93.60;;;;;;5025947;28;20041;-70
2021/04/19 09:53:59;;;;;;;17.88;12.68;;;13.80;92.30;;;;;;5025920;28;20034;-70
2021/04/19 09:56:46;;;;;;;16.83;13.05;;;13.60;92.80;;;;;;5027189;28;20132;-70
2021/04/19 09:59:29;;;;;;;19.92;12.80;;;13.40;93.30;;;;;;5023615;28;20087;-70
2021/04/19 10:01:58;;;;;;;18.27;13.65;;;13.40;93.20;;;;;;5026351;28;20372;-70
2021/04/19 10:04:24;;;;;;;15.27;12.38;;;13.40;93.90;;;;;;5026244;28;20502;-70
2021/04/19 10:06:57;;;;;;;15.48;11.80;;;13.50;93.80;;;;;;5025696;28;20038;-70
2021/04/19 10:09:25;;;;;;;18.23;12.98;;;13.60;93.30;;;;;;5026121;28;20107;-70
2021/04/19 10:12:02;;;;;;;17.25;13.88;;;13.40;93.40;;;;;;5026046;28;20037;-70
2021/04/19 10:14:37;;;;;;;19.52;13.02;;;13.20;93.70;;;;;;5027492;28;20072;-69
2021/04/19 10:17:38;;;;;;;15.95;13.80;;;13.10;94.20;;;;;;5026639;28;20053;-69
2021/04/19 10:20:33;;;;;;;18.80;13.15;;;13.00;93.80;;;;;;5022272;28;20063;-70
2021/04/19 10:23:08;;;;;;;14.57;12.93;;;13.10;94.20;;;;;;5018993;28;20573;-70
2021/04/19 10:25:43;;;;;;;16.35;14.07;;;13.20;94.00;;;;;;5025558;28;20510;-69
2021/04/19 10:28:09;;;;;;;17.45;14.07;;;13.10;93.70;;;;;;5024630;28;20060;-70
2021/04/19 10:30:35;;;;;;;14.13;12.50;;;13.00;94.30;;;;;;5027964;28;20049;-70
2021/04/19 10:33:01;;;;;;;16.17;13.13;;;13.10;94.30;;;;;;5025336;28;20480;-72
2021/04/19 10:35:39;;;;;;;14.48;12.30;;;13.30;94.70;;;;;;5027465;28;20518;-72
2021/04/19 10:38:05;;;;;;;14.40;12.18;;;13.50;94.40;;;;;;5023780;28;20054;-72
2021/04/19 10:40:31;;;;;;;15.05;10.80;;;13.80;94.80;;;;;;5025323;28;20041;-72
2021/04/19 10:43:08;;;;;;;12.48;10.07;;;13.80;92.80;;;;;;5024788;28;20140;-72
2021/04/19 10:45:34;;;;;;;11.25;10.20;;;13.90;93.30;;;;;;5025846;28;20116;-71
2021/04/19 10:48:15;;;;;;;14.35;11.20;;;13.90;92.10;;;;;;5028137;28;20168;-71
2021/04/19 10:50:41;;;;;;;13.00;10.27;;;14.30;93.00;;;;;;5023645;28;20042;-71
2021/04/19 10:53:07;;;;;;;13.35;10.38;;;14.70;90.00;;;;;;5023353;28;20064;-72
2021/04/19 10:55:32;;;;;;;13.13;10.43;;;14.50;90.90;;;;;;5025299;28;20455;-73
2021/04/19 10:57:58;;;;;;;11.15;10.02;;;14.40;90.30;;;;;;5024478;28;20079;-72
2021/04/19 11:00:24;;;;;;;12.77;11.27;;;14.40;90.80;;;;;;5024811;28;20479;-72
2021/04/19 11:02:53;;;;;;;12.05;10.60;;;14.10;91.00;;;;;;5021693;28;20471;-72
2021/04/19 11:05:19;;;;;;;12.25;10.32;;;14.30;90.90;;;;;;5022412;28;20045;-72
2021/04/19 11:07:45;;;;;;;12.60;10.00;;;14.40;90.50;;;;;;5021730;28;20030;-73
2021/04/19 11:10:19;;;;;;;14.70;10.98;;;14.60;91.50;;;;;;5024185;28;20046;-72
2021/04/19 11:13:05;;;;;;;11.40;10.20;;;14.80;92.10;;;;;;5023558;28;20041;-72
2021/04/19 11:15:39;;;;;;;11.57;10.38;;;14.90;90.00;;;;;;5025508;28;20033;-73
2021/04/19 11:18:23;;;;;;;12.30;10.27;;;14.90;88.70;;;;;;5022176;28;20046;-72
2021/04/19 11:20:51;;;;;;;12.20;11.00;;;14.60;88.40;;;;;;5026938;28;20625;-72
2021/04/19 11:23:29;;;;;;;12.55;11.25;;;14.80;90.40;;;;;;5027355;28;20088;-72
2021/04/19 11:26:00;;;;;;;11.48;10.23;;;15.00;90.40;;;;;;5027707;28;20091;-72
2021/04/19 11:28:30;;;;;;;15.93;11.43;;;15.00;83.80;;;;;;5027920;28;20037;-72
2021/04/19 11:31:19;;;;;;;12.30;11.13;;;15.20;88.20;;;;;;5029064;28;20057;-72
2021/04/19 11:33:45;;;;;;;12.77;11.48;;;14.60;89.50;;;;;;5027134;28;20043;-72
2021/04/19 11:36:11;;;;;;;13.07;11.77;;;14.30;89.10;;;;;;5026591;28;20053;-72
2021/04/19 11:38:38;;;;;;;12.18;10.85;;;14.40;89.80;;;;;;5027765;28;20094;-72
2021/04/19 11:41:14;;;;;;;15.65;12.07;;;14.40;90.90;;;;;;5028843;28;20411;-72
2021/04/19 11:43:49;;;;;;;14.48;11.77;;;14.40;90.60;;;;;;5028661;28;20523;-72
2021/04/19 11:46:17;;;;;;;13.40;12.00;;;14.10;90.70;;;;;;5028445;28;20042;-72
2021/04/19 11:48:44;;;;;;;14.00;12.63;;;14.30;90.60;;;;;;5024271;28;20099;-72
2021/04/19 11:51:14;;;;;;;19.45;12.57;;;14.30;91.10;;;;;;5025221;28;20526;-73
2021/04/19 11:53:42;;;;;;;13.70;12.30;;;14.30;90.20;;;;;;5025662;28;20038;-72
2021/04/19 11:56:10;;;;;;;14.48;12.65;;;14.50;91.40;;;;;;5028402;28;20206;-72
2021/04/19 11:58:40;;;;;;;13.00;11.68;;;14.70;91.70;;;;;;5026636;28;20112;-72
2021/04/19 12:01:06;;;;;;;14.38;11.98;;;14.70;90.30;;;;;;5029840;28;20116;-72
2021/04/19 12:03:32;;;;;;;15.10;11.88;;;14.50;89.50;;;;;;5028961;28;20053;-72
2021/04/19 12:05:57;;;;;;;15.02;12.32;;;14.40;90.00;;;;;;5028980;28;20041;-72
2021/04/19 12:08:23;;;;;;;13.50;12.20;;;14.40;89.20;;;;;;5026741;28;20822;-72
2021/04/19 12:10:50;;;;;;;14.55;12.02;;;14.30;91.50;;;;;;5028030;28;20049;-72
2021/04/19 12:13:16;;;;;;;16.80;12.40;;;14.20;91.70;;;;;;5028622;28;20038;-72
2021/04/19 12:15:42;;;;;;;13.50;12.10;;;14.00;90.30;;;;;;5026989;28;20057;-72
2021/04/19 12:18:09;;;;;;;15.52;12.32;;;13.80;90.50;;;;;;5029415;28;20087;-72
2021/04/19 12:20:35;;;;;;;16.98;12.88;;;13.90;91.40;;;;;;5025266;28;20485;-72
2021/04/19 12:23:01;;;;;;;13.48;12.15;;;13.80;91.80;;;;;;5024488;28;20092;-72
2021/04/19 12:25:27;;;;;;;14.35;12.85;;;13.80;91.30;;;;;;5025611;28;20092;-72
2021/04/19 12:27:54;;;;;;;16.30;12.75;;;14.00;91.00;;;;;;5023935;28;20029;-72
2021/04/19 12:30:20;;;;;;;17.45;11.77;;;13.90;91.10;;;;;;5026952;28;20052;-72
2021/04/19 12:32:46;;;;;;;12.95;11.65;;;13.70;90.70;;;;;;5027766;28;20040;-72
2021/04/19 12:35:12;;;;;;;15.55;11.20;;;13.60;90.80;;;;;;5028551;28;20619;-72
2021/04/19 12:37:38;;;;;;;14.60;13.05;;;13.70;90.90;;;;;;5026120;28;20047;-73
2021/04/19 12:40:04;;;;;;;14.93;12.48;;;13.60;91.90;;;;;;5025105;28;20030;-72
2021/04/19 12:42:30;;;;;;;15.05;12.70;;;13.60;91.40;;;;;;5026044;28;20540;-72
2021/04/19 12:44:56;;;;;;;15.60;12.68;;;13.60;91.30;;;;;;5028121;28;20033;-72
2021/04/19 12:47:22;;;;;;;14.02;12.15;;;13.70;91.60;;;;;;5028468;28;20065;-72
2021/04/19 12:49:47;;;;;;;16.35;12.63;;;14.00;91.30;;;;;;5028462;28;20460;-72